^^
Station Historical Data
Daily Summary for February 25, 2017 Units:  Both    English   Metric
« Previous Day
Next Day »
Daily Weekly Monthly Yearly Custom
  High: Low: Average:
Temperature: 86.0 °F /  30 °C 64.0 °F /  17.8 °C 74.1 °F /  23.4 °C
Dew Point: 54.3 °F /  12.4 °C 42.4 °F /  5.8 °C 47.5 °F /  8.6 °C
Humidity: 53% 24% 40%
Wind Speed: 11.0mph /  17.7km/h - 2.8mph /  4.5km/h
Wind Gust: 16.0mph /  25.7km/h - -
Wind- - SSE
Pressure: 29.82 in /  1009.7 hPa 29.71 in /  1006 hPa -
Precipitation: 0.00 in /  0 mm    
Historical Graphs
 
 
Tabular Data for February 25, 2017
Time Temperature Dew Point Pressure Wind Wind Speed Wind Gust Humidity Rainfall Rate (Hourly) solar Conditions
00:02 71.2 °F /  21.8 °C 48.2 °F /  9 °C 29.79in /  1008.7hPa SSE 2.9mph /  4.7km/h 5.0mph /  8km/h 44% 0.00in /  0mm 0.0 W/m2
00:08 71.1 °F /  21.7 °C 47.5 °F /  8.6 °C 29.79in /  1008.7hPa SSE 2.0mph /  3.2km/h 4.0mph /  6.4km/h 43% 0.00in /  0mm 0.0 W/m2
00:14 71.1 °F /  21.7 °C 47.5 °F /  8.6 °C 29.78in /  1008.4hPa SSE 0.9mph /  1.4km/h 4.0mph /  6.4km/h 43% 0.00in /  0mm 0.0 W/m2
00:20 71.1 °F /  21.7 °C 46.8 °F /  8.2 °C 29.78in /  1008.4hPa Calm   3.0mph /  4.8km/h 42% 0.00in /  0mm 0.0 W/m2
00:26 71.1 °F /  21.7 °C 46.2 °F /  7.9 °C 29.79in /  1008.7hPa SSE 2.0mph /  3.2km/h 3.0mph /  4.8km/h 41% 0.00in /  0mm 0.0 W/m2
00:32 71.1 °F /  21.7 °C 45.5 °F /  7.5 °C 29.78in /  1008.4hPa Calm   3.0mph /  4.8km/h 40% 0.00in /  0mm 0.0 W/m2
00:38 70.9 °F /  21.6 °C 44.8 °F /  7.1 °C 29.78in /  1008.4hPa SSW 0.9mph /  1.4km/h 6.0mph /  9.7km/h 39% 0.00in /  0mm 0.0 W/m2
00:44 70.9 °F /  21.6 °C 44.1 °F /  6.7 °C 29.78in /  1008.4hPa SW 2.0mph /  3.2km/h 4.0mph /  6.4km/h 38% 0.00in /  0mm 0.0 W/m2
00:50 70.9 °F /  21.6 °C 43.3 °F /  6.3 °C 29.78in /  1008.4hPa WSW 0.9mph /  1.4km/h 4.0mph /  6.4km/h 37% 0.00in /  0mm 0.0 W/m2
00:56 70.9 °F /  21.6 °C 43.3 °F /  6.3 °C 29.78in /  1008.4hPa Calm   4.0mph /  6.4km/h 37% 0.00in /  0mm 0.0 W/m2
01:02 70.9 °F /  21.6 °C 43.3 °F /  6.3 °C 29.78in /  1008.4hPa WSW 2.0mph /  3.2km/h 3.0mph /  4.8km/h 37% 0.00in /  0mm 0.0 W/m2
01:08 70.5 °F /  21.4 °C 43.0 °F /  6.1 °C 29.78in /  1008.4hPa WSW 2.9mph /  4.7km/h 7.0mph /  11.3km/h 37% 0.00in /  0mm 0.0 W/m2
01:14 70.3 °F /  21.3 °C 43.5 °F /  6.4 °C 29.78in /  1008.4hPa NW 2.0mph /  3.2km/h 4.0mph /  6.4km/h 38% 0.00in /  0mm 0.0 W/m2
01:20 70.2 °F /  21.2 °C 42.6 °F /  5.9 °C 29.77in /  1008hPa Calm   5.0mph /  8km/h 37% 0.00in /  0mm 0.0 W/m2
01:26 70.0 °F /  21.1 °C 42.4 °F /  5.8 °C 29.78in /  1008.4hPa WSW 2.0mph /  3.2km/h 7.0mph /  11.3km/h 37% 0.00in /  0mm 0.0 W/m2
01:32 70.0 °F /  21.1 °C 42.4 °F /  5.8 °C 29.77in /  1008hPa Calm   3.0mph /  4.8km/h 37% 0.00in /  0mm 0.0 W/m2
01:38 69.6 °F /  20.9 °C 42.8 °F /  6 °C 29.77in /  1008hPa Calm   2.0mph /  3.2km/h 38% 0.00in /  0mm 0.0 W/m2
01:44 69.6 °F /  20.9 °C 42.8 °F /  6 °C 29.77in /  1008hPa Calm   7.0mph /  11.3km/h 38% 0.00in /  0mm 0.0 W/m2
01:50 69.4 °F /  20.8 °C 42.8 °F /  6 °C 29.78in /  1008.4hPa West 0.9mph /  1.4km/h 4.0mph /  6.4km/h 38% 0.00in /  0mm 0.0 W/m2
01:56 69.3 °F /  20.7 °C 43.2 °F /  6.2 °C 29.77in /  1008hPa Calm   4.0mph /  6.4km/h 39% 0.00in /  0mm 0.0 W/m2
02:02 69.3 °F /  20.7 °C 43.2 °F /  6.2 °C 29.78in /  1008.4hPa Calm   1.0mph /  1.6km/h 39% 0.00in /  0mm 0.0 W/m2
02:06 69.1 °F /  20.6 °C 44.4 °F /  6.9 °C 29.78in /  1008.4hPa Calm     41% 0.00in /  0mm 0.0 W/m2
02:14 68.7 °F /  20.4 °C 44.1 °F /  6.7 °C 29.78in /  1008.4hPa Calm   1.0mph /  1.6km/h 41% 0.00in /  0mm 0.0 W/m2
02:20 68.5 °F /  20.3 °C 43.9 °F /  6.6 °C 29.78in /  1008.4hPa WSW 0.9mph /  1.4km/h 1.0mph /  1.6km/h 41% 0.00in /  0mm 0.0 W/m2
02:26 68.5 °F /  20.3 °C 43.9 °F /  6.6 °C 29.77in /  1008hPa West 2.9mph /  4.7km/h 3.0mph /  4.8km/h 41% 0.00in /  0mm 0.0 W/m2
02:32 68.5 °F /  20.3 °C 44.6 °F /  7 °C 29.77in /  1008hPa SW 0.9mph /  1.4km/h 1.0mph /  1.6km/h 42% 0.00in /  0mm 0.0 W/m2
02:38 68.5 °F /  20.3 °C 44.6 °F /  7 °C 29.77in /  1008hPa SW 0.9mph /  1.4km/h 4.0mph /  6.4km/h 42% 0.00in /  0mm 0.0 W/m2
02:44 68.4 °F /  20.2 °C 44.4 °F /  6.9 °C 29.77in /  1008hPa Calm   2.0mph /  3.2km/h 42% 0.00in /  0mm 0.0 W/m2
02:50 68.4 °F /  20.2 °C 44.4 °F /  6.9 °C 29.77in /  1008hPa WSW 2.0mph /  3.2km/h 3.0mph /  4.8km/h 42% 0.00in /  0mm 0.0 W/m2
02:56 68.4 °F /  20.2 °C 44.4 °F /  6.9 °C 29.77in /  1008hPa Calm   1.0mph /  1.6km/h 42% 0.00in /  0mm 0.0 W/m2
03:02 68.4 °F /  20.2 °C 44.4 °F /  6.9 °C 29.77in /  1008hPa SW 0.9mph /  1.4km/h 4.0mph /  6.4km/h 42% 0.00in /  0mm 0.0 W/m2
03:08 68.2 °F /  20.1 °C 44.2 °F /  6.8 °C 29.77in /  1008hPa SSE 0.9mph /  1.4km/h 3.0mph /  4.8km/h 42% 0.00in /  0mm 0.0 W/m2
03:14 68.2 °F /  20.1 °C 44.2 °F /  6.8 °C 29.76in /  1007.7hPa SSW 4.9mph /  7.9km/h 5.0mph /  8km/h 42% 0.00in /  0mm 0.0 W/m2
03:20 67.8 °F /  19.9 °C 44.4 °F /  6.9 °C 29.76in /  1007.7hPa ESE 0.9mph /  1.4km/h 3.0mph /  4.8km/h 43% 0.00in /  0mm 0.0 W/m2
03:26 67.6 °F /  19.8 °C 44.4 °F /  6.9 °C 29.76in /  1007.7hPa Calm   1.0mph /  1.6km/h 43% 0.00in /  0mm 0.0 W/m2
03:32 67.5 °F /  19.7 °C 44.2 °F /  6.8 °C 29.77in /  1008hPa South 2.9mph /  4.7km/h 4.0mph /  6.4km/h 43% 0.00in /  0mm 0.0 W/m2
03:38 67.3 °F /  19.6 °C 44.1 °F /  6.7 °C 29.77in /  1008hPa Calm   4.0mph /  6.4km/h 43% 0.00in /  0mm 0.0 W/m2
03:44 67.3 °F /  19.6 °C 44.6 °F /  7 °C 29.77in /  1008hPa SW 6.0mph /  9.7km/h 6.0mph /  9.7km/h 44% 0.00in /  0mm 0.0 W/m2
03:50 67.1 °F /  19.5 °C 44.4 °F /  6.9 °C 29.77in /  1008hPa Calm   3.0mph /  4.8km/h 44% 0.00in /  0mm 0.0 W/m2
03:56 66.9 °F /  19.4 °C 45.0 °F /  7.2 °C 29.77in /  1008hPa WSW 2.9mph /  4.7km/h 5.0mph /  8km/h 45% 0.00in /  0mm 0.0 W/m2
04:02 66.7 °F /  19.3 °C 44.8 °F /  7.1 °C 29.77in /  1008hPa Calm   3.0mph /  4.8km/h 45% 0.00in /  0mm 0.0 W/m2
04:06 66.6 °F /  19.2 °C 45.1 °F /  7.3 °C 29.77in /  1008hPa SSW 2.9mph /  4.7km/h 6.0mph /  9.7km/h 46% 0.00in /  0mm 0.0 W/m2
04:08 66.6 °F /  19.2 °C 45.1 °F /  7.3 °C 29.76in /  1007.7hPa Calm   7.0mph /  11.3km/h 46% 0.00in /  0mm 0.0 W/m2
04:14 66.4 °F /  19.1 °C 45.5 °F /  7.5 °C 29.76in /  1007.7hPa SSW 2.0mph /  3.2km/h 4.0mph /  6.4km/h 47% 0.00in /  0mm 0.0 W/m2
04:21 66.0 °F /  18.9 °C 45.1 °F /  7.3 °C 29.76in /  1007.7hPa SSE 0.9mph /  1.4km/h 4.0mph /  6.4km/h 47% 0.00in /  0mm 0.0 W/m2
04:28 66.0 °F /  18.9 °C 45.7 °F /  7.6 °C 29.76in /  1007.7hPa Calm   3.0mph /  4.8km/h 48% 0.00in /  0mm 0.0 W/m2
04:30 66.0 °F /  18.9 °C 45.1 °F /  7.3 °C 29.76in /  1007.7hPa Calm   5.0mph /  8km/h 47% 0.00in /  0mm 0.0 W/m2
04:36 65.8 °F /  18.8 °C 45.7 °F /  7.6 °C 29.76in /  1007.7hPa SSW 2.0mph /  3.2km/h 5.0mph /  8km/h 48% 0.00in /  0mm 0.0 W/m2
04:42 65.8 °F /  18.8 °C 45.7 °F /  7.6 °C 29.76in /  1007.7hPa SSW 2.0mph /  3.2km/h 5.0mph /  8km/h 48% 0.00in /  0mm 0.0 W/m2
04:48 65.8 °F /  18.8 °C 45.7 °F /  7.6 °C 29.76in /  1007.7hPa SW 2.9mph /  4.7km/h 4.0mph /  6.4km/h 48% 0.00in /  0mm 0.0 W/m2
04:54 65.8 °F /  18.8 °C 45.0 °F /  7.2 °C 29.75in /  1007.3hPa ENE 2.0mph /  3.2km/h 5.0mph /  8km/h 47% 0.00in /  0mm 0.0 W/m2
05:00 65.8 °F /  18.8 °C 45.7 °F /  7.6 °C 29.75in /  1007.3hPa SSW 6.0mph /  9.7km/h 7.0mph /  11.3km/h 48% 0.00in /  0mm 0.0 W/m2
05:06 65.8 °F /  18.8 °C 45.7 °F /  7.6 °C 29.75in /  1007.3hPa SE 0.9mph /  1.4km/h 5.0mph /  8km/h 48% 0.00in /  0mm 0.0 W/m2
05:12 65.7 °F /  18.7 °C 45.0 °F /  7.2 °C 29.76in /  1007.7hPa SW 6.9mph /  11.1km/h 7.0mph /  11.3km/h 47% 0.00in /  0mm 0.0 W/m2
05:18 65.7 °F /  18.7 °C 45.5 °F /  7.5 °C 29.76in /  1007.7hPa SE 0.9mph /  1.4km/h 11.0mph /  17.7km/h 48% 0.00in /  0mm 0.0 W/m2
05:24 65.7 °F /  18.7 °C 45.5 °F /  7.5 °C 29.76in /  1007.7hPa SE 2.9mph /  4.7km/h 6.0mph /  9.7km/h 48% 0.00in /  0mm 0.0 W/m2
05:30 65.5 °F /  18.6 °C 45.3 °F /  7.4 °C 29.76in /  1007.7hPa SSE 4.0mph /  6.4km/h 5.0mph /  8km/h 48% 0.00in /  0mm 0.0 W/m2
05:36 65.3 °F /  18.5 °C 45.7 °F /  7.6 °C 29.76in /  1007.7hPa SSE 2.0mph /  3.2km/h 7.0mph /  11.3km/h 49% 0.00in /  0mm 0.0 W/m2
05:42 65.1 °F /  18.4 °C 45.5 °F /  7.5 °C 29.76in /  1007.7hPa SSE 6.0mph /  9.7km/h 10.0mph /  16.1km/h 49% 0.00in /  0mm 0.0 W/m2
05:48 64.9 °F /  18.3 °C 45.3 °F /  7.4 °C 29.76in /  1007.7hPa Calm   1.0mph /  1.6km/h 49% 0.00in /  0mm 0.0 W/m2
05:54 64.8 °F /  18.2 °C 45.7 °F /  7.6 °C 29.76in /  1007.7hPa SSE 0.9mph /  1.4km/h 12.0mph /  19.3km/h 50% 0.00in /  0mm 0.0 W/m2
06:00 64.8 °F /  18.2 °C 45.7 °F /  7.6 °C 29.77in /  1008hPa SE 4.0mph /  6.4km/h 6.0mph /  9.7km/h 50% 0.00in /  0mm 0.0 W/m2
06:06 64.8 °F /  18.2 °C 45.7 °F /  7.6 °C 29.77in /  1008hPa Calm   9.0mph /  14.5km/h 50% 0.00in /  0mm 0.0 W/m2
06:12 64.8 °F /  18.2 °C 45.1 °F /  7.3 °C 29.77in /  1008hPa SSW 2.0mph /  3.2km/h 11.0mph /  17.7km/h 49% 0.00in /  0mm 0.0 W/m2
06:18 64.6 °F /  18.1 °C 45.5 °F /  7.5 °C 29.77in /  1008hPa SE 4.0mph /  6.4km/h 6.0mph /  9.7km/h 50% 0.00in /  0mm 0.0 W/m2
06:24 64.6 °F /  18.1 °C 45.5 °F /  7.5 °C 29.77in /  1008hPa SSW 0.9mph /  1.4km/h 11.0mph /  17.7km/h 50% 0.00in /  0mm 0.0 W/m2
06:30 64.6 °F /  18.1 °C 45.5 °F /  7.5 °C 29.77in /  1008hPa SE 4.0mph /  6.4km/h 4.0mph /  6.4km/h 50% 0.00in /  0mm 0.0 W/m2
06:36 64.4 °F /  18 °C 45.3 °F /  7.4 °C 29.77in /  1008hPa SSE 6.0mph /  9.7km/h 9.0mph /  14.5km/h 50% 0.00in /  0mm 0.0 W/m2
06:42 64.2 °F /  17.9 °C 45.1 °F /  7.3 °C 29.77in /  1008hPa SSE 10.1mph /  16.3km/h 11.0mph /  17.7km/h 50% 0.00in /  0mm 0.0 W/m2
06:48 64.4 °F /  18 °C 45.3 °F /  7.4 °C 29.77in /  1008hPa SSW 2.9mph /  4.7km/h 11.0mph /  17.7km/h 50% 0.00in /  0mm 0.0 W/m2
06:54 64.4 °F /  18 °C 45.3 °F /  7.4 °C 29.77in /  1008hPa ESE 11.0mph /  17.7km/h 13.0mph /  20.9km/h 50% 0.00in /  0mm 7.0 W/m2
07:00 64.4 °F /  18 °C 45.3 °F /  7.4 °C 29.78in /  1008.4hPa SSE 0.9mph /  1.4km/h 6.0mph /  9.7km/h 50% 0.00in /  0mm 12.0 W/m2
07:06 64.2 °F /  17.9 °C 45.7 °F /  7.6 °C 29.78in /  1008.4hPa SW 2.9mph /  4.7km/h 6.0mph /  9.7km/h 51% 0.00in /  0mm 16.0 W/m2
07:12 64.2 °F /  17.9 °C 45.7 °F /  7.6 °C 29.78in /  1008.4hPa South 2.9mph /  4.7km/h 9.0mph /  14.5km/h 51% 0.00in /  0mm 21.0 W/m2
07:18 64.0 °F /  17.8 °C 45.5 °F /  7.5 °C 29.78in /  1008.4hPa ESE 6.0mph /  9.7km/h 13.0mph /  20.9km/h 51% 0.00in /  0mm 23.0 W/m2
07:24 64.2 °F /  17.9 °C 46.2 °F /  7.9 °C 29.78in /  1008.4hPa SE 4.9mph /  7.9km/h 6.0mph /  9.7km/h 52% 0.00in /  0mm 26.0 W/m2
07:30 64.2 °F /  17.9 °C 45.7 °F /  7.6 °C 29.78in /  1008.4hPa SSE 0.9mph /  1.4km/h 8.0mph /  12.9km/h 51% 0.00in /  0mm 30.0 W/m2
07:36 64.6 °F /  18.1 °C 46.0 °F /  7.8 °C 29.78in /  1008.4hPa SE 4.0mph /  6.4km/h 9.0mph /  14.5km/h 51% 0.00in /  0mm 32.0 W/m2
07:42 64.8 °F /  18.2 °C 46.2 °F /  7.9 °C 29.79in /  1008.7hPa South 2.0mph /  3.2km/h 4.0mph /  6.4km/h 51% 0.00in /  0mm 39.0 W/m2
07:48 64.9 °F /  18.3 °C 45.9 °F /  7.7 °C 29.79in /  1008.7hPa South 6.9mph /  11.1km/h 16.0mph /  25.7km/h 50% 0.00in /  0mm 39.0 W/m2
07:54 65.1 °F /  18.4 °C 46.6 °F /  8.1 °C 29.79in /  1008.7hPa South 4.0mph /  6.4km/h 6.0mph /  9.7km/h 51% 0.00in /  0mm 39.0 W/m2
08:00 65.5 °F /  18.6 °C 45.9 °F /  7.7 °C 29.80in /  1009hPa SSE 6.9mph /  11.1km/h 11.0mph /  17.7km/h 49% 0.00in /  0mm 40.0 W/m2
08:06 65.8 °F /  18.8 °C 46.2 °F /  7.9 °C 29.80in /  1009hPa SSE 8.1mph /  13km/h 11.0mph /  17.7km/h 49% 0.00in /  0mm 44.0 W/m2
08:12 66.2 °F /  19 °C 46.4 °F /  8 °C 29.80in /  1009hPa SSW 4.0mph /  6.4km/h 13.0mph /  20.9km/h 49% 0.00in /  0mm 46.0 W/m2
08:18 66.6 °F /  19.2 °C 46.2 °F /  7.9 °C 29.80in /  1009hPa South 4.9mph /  7.9km/h 14.0mph /  22.5km/h 48% 0.00in /  0mm 47.0 W/m2
08:24 66.7 °F /  19.3 °C 46.4 °F /  8 °C 29.80in /  1009hPa SE 6.9mph /  11.1km/h 14.0mph /  22.5km/h 48% 0.00in /  0mm 51.0 W/m2
08:30 66.9 °F /  19.4 °C 46.6 °F /  8.1 °C 29.81in /  1009.4hPa South 0.9mph /  1.4km/h 11.0mph /  17.7km/h 48% 0.00in /  0mm 54.0 W/m2
08:36 67.3 °F /  19.6 °C 46.9 °F /  8.3 °C 29.81in /  1009.4hPa Calm   9.0mph /  14.5km/h 48% 0.00in /  0mm 54.0 W/m2
08:42 67.6 °F /  19.8 °C 46.8 °F /  8.2 °C 29.81in /  1009.4hPa SSE 4.0mph /  6.4km/h 13.0mph /  20.9km/h 47% 0.00in /  0mm 56.0 W/m2
08:48 67.8 °F /  19.9 °C 47.5 °F /  8.6 °C 29.81in /  1009.4hPa ESE 2.0mph /  3.2km/h 11.0mph /  17.7km/h 48% 0.00in /  0mm 63.0 W/m2
08:54 68.4 °F /  20.2 °C 47.8 °F /  8.8 °C 29.81in /  1009.4hPa SSE 4.0mph /  6.4km/h 11.0mph /  17.7km/h 48% 0.00in /  0mm 146.0 W/m2
09:01 68.7 °F /  20.4 °C 49.3 °F /  9.6 °C 29.81in /  1009.4hPa Calm   10.0mph /  16.1km/h 50% 0.00in /  0mm 489.0 W/m2
09:07 69.3 °F /  20.7 °C 48.7 °F /  9.3 °C 29.82in /  1009.7hPa South 6.0mph /  9.7km/h 8.0mph /  12.9km/h 48% 0.00in /  0mm 513.0 W/m2
09:13 70.2 °F /  21.2 °C 49.6 °F /  9.8 °C 29.82in /  1009.7hPa SW 0.9mph /  1.4km/h 5.0mph /  8km/h 48% 0.00in /  0mm 526.0 W/m2
09:19 70.7 °F /  21.5 °C 50.0 °F /  10 °C 29.82in /  1009.7hPa ESE 6.0mph /  9.7km/h 10.0mph /  16.1km/h 48% 0.00in /  0mm 566.0 W/m2
09:25 71.4 °F /  21.9 °C 50.7 °F /  10.4 °C 29.82in /  1009.7hPa SSW 0.9mph /  1.4km/h 8.0mph /  12.9km/h 48% 0.00in /  0mm 613.0 W/m2
09:31 72.0 °F /  22.2 °C 51.3 °F /  10.7 °C 29.82in /  1009.7hPa WSW 4.0mph /  6.4km/h 11.0mph /  17.7km/h 48% 0.00in /  0mm 635.0 W/m2
09:37 72.3 °F /  22.4 °C 50.9 °F /  10.5 °C 29.82in /  1009.7hPa SSW 4.9mph /  7.9km/h 13.0mph /  20.9km/h 47% 0.00in /  0mm 645.0 W/m2
09:43 72.9 °F /  22.7 °C 52.0 °F /  11.1 °C 29.82in /  1009.7hPa SSE 4.0mph /  6.4km/h 6.0mph /  9.7km/h 48% 0.00in /  0mm 722.0 W/m2
09:49 73.8 °F /  23.2 °C 52.3 °F /  11.3 °C 29.82in /  1009.7hPa SW 0.9mph /  1.4km/h 7.0mph /  11.3km/h 47% 0.00in /  0mm 715.0 W/m2
09:55 74.5 °F /  23.6 °C 52.9 °F /  11.6 °C 29.82in /  1009.7hPa SSW 2.0mph /  3.2km/h 6.0mph /  9.7km/h 47% 0.00in /  0mm 740.0 W/m2
10:01 75.4 °F /  24.1 °C 53.2 °F /  11.8 °C 29.82in /  1009.7hPa SSE 2.0mph /  3.2km/h 6.0mph /  9.7km/h 46% 0.00in /  0mm 738.0 W/m2
10:07 75.7 °F /  24.3 °C 52.9 °F /  11.6 °C 29.82in /  1009.7hPa SSE 4.0mph /  6.4km/h 7.0mph /  11.3km/h 45% 0.00in /  0mm 745.0 W/m2
10:13 76.5 °F /  24.7 °C 52.3 °F /  11.3 °C 29.81in /  1009.4hPa SE 2.0mph /  3.2km/h 7.0mph /  11.3km/h 43% 0.00in /  0mm 745.0 W/m2
10:19 77.0 °F /  25 °C 52.9 °F /  11.6 °C 29.81in /  1009.4hPa SSE 0.9mph /  1.4km/h 6.0mph /  9.7km/h 43% 0.00in /  0mm 772.0 W/m2
10:25 77.9 °F /  25.5 °C 52.9 °F /  11.6 °C 29.82in /  1009.7hPa ESE 6.9mph /  11.1km/h 8.0mph /  12.9km/h 42% 0.00in /  0mm 786.0 W/m2
10:32 78.4 °F /  25.8 °C 52.7 °F /  11.5 °C 29.81in /  1009.4hPa ESE 0.9mph /  1.4km/h 9.0mph /  14.5km/h 41% 0.00in /  0mm 805.0 W/m2
10:38 78.6 °F /  25.9 °C 52.9 °F /  11.6 °C 29.81in /  1009.4hPa SSE 4.9mph /  7.9km/h 10.0mph /  16.1km/h 41% 0.00in /  0mm 821.0 W/m2
10:44 78.8 °F /  26 °C 53.1 °F /  11.7 °C 29.81in /  1009.4hPa SSE 4.0mph /  6.4km/h 6.0mph /  9.7km/h 41% 0.00in /  0mm 851.0 W/m2
10:50 78.4 °F /  25.8 °C 52.7 °F /  11.5 °C 29.81in /  1009.4hPa SSE 2.0mph /  3.2km/h 4.0mph /  6.4km/h 41% 0.00in /  0mm 861.0 W/m2
10:56 78.4 °F /  25.8 °C 53.4 °F /  11.9 °C 29.81in /  1009.4hPa SE 8.1mph /  13km/h 9.0mph /  14.5km/h 42% 0.00in /  0mm 872.0 W/m2
11:02 78.6 °F /  25.9 °C 53.6 °F /  12 °C 29.81in /  1009.4hPa ESE 6.0mph /  9.7km/h 10.0mph /  16.1km/h 42% 0.00in /  0mm 863.0 W/m2
11:08 78.6 °F /  25.9 °C 52.9 °F /  11.6 °C 29.81in /  1009.4hPa SE 6.0mph /  9.7km/h 7.0mph /  11.3km/h 41% 0.00in /  0mm 861.0 W/m2
11:15 78.6 °F /  25.9 °C 52.9 °F /  11.6 °C 29.81in /  1009.4hPa SW 2.9mph /  4.7km/h 6.0mph /  9.7km/h 41% 0.00in /  0mm 896.0 W/m2
11:21 78.6 °F /  25.9 °C 52.9 °F /  11.6 °C 29.80in /  1009hPa ESE 4.0mph /  6.4km/h 7.0mph /  11.3km/h 41% 0.00in /  0mm 904.0 W/m2
11:27 79.3 °F /  26.3 °C 54.3 °F /  12.4 °C 29.80in /  1009hPa SE 4.0mph /  6.4km/h 4.0mph /  6.4km/h 42% 0.00in /  0mm 930.0 W/m2
11:33 80.1 °F /  26.7 °C 51.4 °F /  10.8 °C 29.80in /  1009hPa Calm   3.0mph /  4.8km/h 37% 0.00in /  0mm 942.0 W/m2
11:39 81.0 °F /  27.2 °C 50.7 °F /  10.4 °C 29.80in /  1009hPa Calm   10.0mph /  16.1km/h 35% 0.00in /  0mm 949.0 W/m2
11:45 81.3 °F /  27.4 °C 51.1 °F /  10.6 °C 29.80in /  1009hPa SE 4.0mph /  6.4km/h 5.0mph /  8km/h 35% 0.00in /  0mm 953.0 W/m2
11:51 81.7 °F /  27.6 °C 51.4 °F /  10.8 °C 29.80in /  1009hPa SSE 8.1mph /  13km/h 11.0mph /  17.7km/h 35% 0.00in /  0mm 1025.0 W/m2
11:57 81.7 °F /  27.6 °C 52.2 °F /  11.2 °C 29.80in /  1009hPa NNE 0.9mph /  1.4km/h 4.0mph /  6.4km/h 36% 0.00in /  0mm 1027.0 W/m2
12:03 81.9 °F /  27.7 °C 51.4 °F /  10.8 °C 29.80in /  1009hPa NE 4.0mph /  6.4km/h 6.0mph /  9.7km/h 35% 0.00in /  0mm 1055.0 W/m2
12:09 82.0 °F /  27.8 °C 50.9 °F /  10.5 °C 29.80in /  1009hPa SSE 2.0mph /  3.2km/h 10.0mph /  16.1km/h 34% 0.00in /  0mm 1042.0 W/m2
12:15 82.6 °F /  28.1 °C 51.4 °F /  10.8 °C 29.80in /  1009hPa SE 4.0mph /  6.4km/h 9.0mph /  14.5km/h 34% 0.00in /  0mm 1090.0 W/m2
12:22 82.9 °F /  28.3 °C 52.5 °F /  11.4 °C 29.79in /  1008.7hPa ESE 2.9mph /  4.7km/h 6.0mph /  9.7km/h 35% 0.00in /  0mm 1079.0 W/m2
12:28 82.8 °F /  28.2 °C 50.7 °F /  10.4 °C 29.79in /  1008.7hPa SE 11.0mph /  17.7km/h 11.0mph /  17.7km/h 33% 0.00in /  0mm 1120.0 W/m2
12:34 82.9 °F /  28.3 °C 50.9 °F /  10.5 °C 29.79in /  1008.7hPa East 4.0mph /  6.4km/h 10.0mph /  16.1km/h 33% 0.00in /  0mm 1130.0 W/m2
12:40 83.1 °F /  28.4 °C 51.1 °F /  10.6 °C 29.79in /  1008.7hPa SE 4.0mph /  6.4km/h 11.0mph /  17.7km/h 33% 0.00in /  0mm 1167.0 W/m2
12:46 82.8 °F /  28.2 °C 50.7 °F /  10.4 °C 29.79in /  1008.7hPa SE 4.0mph /  6.4km/h 10.0mph /  16.1km/h 33% 0.00in /  0mm 1139.0 W/m2
12:52 83.1 °F /  28.4 °C 51.1 °F /  10.6 °C 29.79in /  1008.7hPa ESE 8.1mph /  13km/h 10.0mph /  16.1km/h 33% 0.00in /  0mm 1158.0 W/m2
12:58 84.0 °F /  28.9 °C 51.8 °F /  11 °C 29.78in /  1008.4hPa ESE 2.0mph /  3.2km/h 3.0mph /  4.8km/h 33% 0.00in /  0mm 1174.0 W/m2
13:04 83.8 °F /  28.8 °C 50.0 °F /  10 °C 29.78in /  1008.4hPa SE 2.0mph /  3.2km/h 6.0mph /  9.7km/h 31% 0.00in /  0mm 206.0 W/m2
13:10 82.8 °F /  28.2 °C 49.8 °F /  9.9 °C 29.78in /  1008.4hPa ESE 8.1mph /  13km/h 9.0mph /  14.5km/h 32% 0.00in /  0mm 216.0 W/m2
13:16 81.7 °F /  27.6 °C 49.8 °F /  9.9 °C 29.78in /  1008.4hPa SE 2.0mph /  3.2km/h 7.0mph /  11.3km/h 33% 0.00in /  0mm 283.0 W/m2
13:23 81.9 °F /  27.7 °C 50.0 °F /  10 °C 29.78in /  1008.4hPa SE 4.0mph /  6.4km/h 8.0mph /  12.9km/h 33% 0.00in /  0mm 1155.0 W/m2
13:29 82.4 °F /  28 °C 48.7 °F /  9.3 °C 29.77in /  1008hPa SE 10.1mph /  16.3km/h 12.0mph /  19.3km/h 31% 0.00in /  0mm 225.0 W/m2
13:35 82.2 °F /  27.9 °C 47.7 °F /  8.7 °C 29.77in /  1008hPa SSE 6.0mph /  9.7km/h 12.0mph /  19.3km/h 30% 0.00in /  0mm 241.0 W/m2
13:41 82.0 °F /  27.8 °C 49.3 °F /  9.6 °C 29.77in /  1008hPa ENE 6.0mph /  9.7km/h 9.0mph /  14.5km/h 32% 0.00in /  0mm 276.0 W/m2
13:47 82.9 °F /  28.3 °C 50.0 °F /  10 °C 29.77in /  1008hPa SSE 2.9mph /  4.7km/h 8.0mph /  12.9km/h 32% 0.00in /  0mm 1074.0 W/m2
13:53 83.7 °F /  28.7 °C 50.7 °F /  10.4 °C 29.76in /  1007.7hPa South 0.9mph /  1.4km/h 4.0mph /  6.4km/h 32% 0.00in /  0mm 1060.0 W/m2
13:59 84.4 °F /  29.1 °C 50.4 °F /  10.2 °C 29.76in /  1007.7hPa SSE 11.0mph /  17.7km/h 11.0mph /  17.7km/h 31% 0.00in /  0mm 1056.0 W/m2
14:05 84.6 °F /  29.2 °C 48.7 °F /  9.3 °C 29.76in /  1007.7hPa East 4.9mph /  7.9km/h 6.0mph /  9.7km/h 29% 0.00in /  0mm 1041.0 W/m2
14:12 84.6 °F /  29.2 °C 50.5 °F /  10.3 °C 29.75in /  1007.3hPa ESE 4.9mph /  7.9km/h 10.0mph /  16.1km/h 31% 0.00in /  0mm 1041.0 W/m2
14:18 84.7 °F /  29.3 °C 48.9 °F /  9.4 °C 29.75in /  1007.3hPa SE 4.9mph /  7.9km/h 11.0mph /  17.7km/h 29% 0.00in /  0mm 1014.0 W/m2
14:24 84.7 °F /  29.3 °C 48.9 °F /  9.4 °C 29.75in /  1007.3hPa SSE 10.1mph /  16.3km/h 13.0mph /  20.9km/h 29% 0.00in /  0mm 981.0 W/m2
14:30 84.9 °F /  29.4 °C 49.1 °F /  9.5 °C 29.75in /  1007.3hPa SSE 6.9mph /  11.1km/h 9.0mph /  14.5km/h 29% 0.00in /  0mm 977.0 W/m2
14:36 85.1 °F /  29.5 °C 47.3 °F /  8.5 °C 29.75in /  1007.3hPa SE 2.9mph /  4.7km/h 12.0mph /  19.3km/h 27% 0.00in /  0mm 974.0 W/m2
14:42 85.3 °F /  29.6 °C 48.6 °F /  9.2 °C 29.74in /  1007hPa South 0.9mph /  1.4km/h 10.0mph /  16.1km/h 28% 0.00in /  0mm 960.0 W/m2
14:48 84.9 °F /  29.4 °C 48.2 °F /  9 °C 29.74in /  1007hPa SSW 2.0mph /  3.2km/h 10.0mph /  16.1km/h 28% 0.00in /  0mm 896.0 W/m2
14:54 84.9 °F /  29.4 °C 49.1 °F /  9.5 °C 29.73in /  1006.7hPa ESE 2.0mph /  3.2km/h 5.0mph /  8km/h 29% 0.00in /  0mm 930.0 W/m2
15:01 84.6 °F /  29.2 °C 47.8 °F /  8.8 °C 29.73in /  1006.7hPa East 2.0mph /  3.2km/h 16.0mph /  25.7km/h 28% 0.00in /  0mm 904.0 W/m2
15:07 84.7 °F /  29.3 °C 48.0 °F /  8.9 °C 29.74in /  1007hPa SSE 4.0mph /  6.4km/h 12.0mph /  19.3km/h 28% 0.00in /  0mm 874.0 W/m2
15:13 84.7 °F /  29.3 °C 47.1 °F /  8.4 °C 29.73in /  1006.7hPa South 4.0mph /  6.4km/h 12.0mph /  19.3km/h 27% 0.00in /  0mm 853.0 W/m2
15:23 85.3 °F /  29.6 °C 48.6 °F /  9.2 °C 29.73in /  1006.7hPa SSW 6.0mph /  9.7km/h 6.0mph /  9.7km/h 28% 0.00in /  0mm 838.0 W/m2
15:29 85.6 °F /  29.8 °C 46.8 °F /  8.2 °C 29.73in /  1006.7hPa SE 8.1mph /  13km/h 11.0mph /  17.7km/h 26% 0.00in /  0mm 824.0 W/m2
15:37 85.5 °F /  29.7 °C 45.7 °F /  7.6 °C 29.72in /  1006.3hPa South 2.9mph /  4.7km/h 7.0mph /  11.3km/h 25% 0.00in /  0mm 802.0 W/m2
15:45 85.1 °F /  29.5 °C 48.4 °F /  9.1 °C 29.72in /  1006.3hPa ESE 2.9mph /  4.7km/h 14.0mph /  22.5km/h 28% 0.00in /  0mm 780.0 W/m2
15:51 85.5 °F /  29.7 °C 48.6 °F /  9.2 °C 29.72in /  1006.3hPa SW 4.9mph /  7.9km/h 7.0mph /  11.3km/h 28% 0.00in /  0mm 775.0 W/m2
15:57 86.0 °F /  30 °C 47.1 °F /  8.4 °C 29.72in /  1006.3hPa SSW 8.9mph /  14.3km/h 9.0mph /  14.5km/h 26% 0.00in /  0mm 728.0 W/m2
16:03 85.8 °F /  29.9 °C 46.9 °F /  8.3 °C 29.72in /  1006.3hPa SE 2.0mph /  3.2km/h 11.0mph /  17.7km/h 26% 0.00in /  0mm 731.0 W/m2
16:09 86.0 °F /  30 °C 46.0 °F /  7.8 °C 29.71in /  1006hPa SE 2.0mph /  3.2km/h 9.0mph /  14.5km/h 25% 0.00in /  0mm 708.0 W/m2
16:15 86.0 °F /  30 °C 47.1 °F /  8.4 °C 29.72in /  1006.3hPa SE 8.1mph /  13km/h 13.0mph /  20.9km/h 26% 0.00in /  0mm 691.0 W/m2
16:22 85.8 °F /  29.9 °C 44.8 °F /  7.1 °C 29.72in /  1006.3hPa SE 6.9mph /  11.1km/h 11.0mph /  17.7km/h 24% 0.00in /  0mm 675.0 W/m2
16:28 86.0 °F /  30 °C 47.1 °F /  8.4 °C 29.72in /  1006.3hPa East 4.0mph /  6.4km/h 12.0mph /  19.3km/h 26% 0.00in /  0mm 640.0 W/m2
16:34 86.0 °F /  30 °C 47.1 °F /  8.4 °C 29.71in /  1006hPa South 8.1mph /  13km/h 13.0mph /  20.9km/h 26% 0.00in /  0mm 619.0 W/m2
16:40 85.3 °F /  29.6 °C 45.5 °F /  7.5 °C 29.71in /  1006hPa SSE 2.0mph /  3.2km/h 8.0mph /  12.9km/h 25% 0.00in /  0mm 598.0 W/m2
16:46 85.1 °F /  29.5 °C 45.3 °F /  7.4 °C 29.72in /  1006.3hPa SSW 6.0mph /  9.7km/h 15.0mph /  24.1km/h 25% 0.00in /  0mm 585.0 W/m2
16:52 84.9 °F /  29.4 °C 45.1 °F /  7.3 °C 29.72in /  1006.3hPa SSE 2.9mph /  4.7km/h 9.0mph /  14.5km/h 25% 0.00in /  0mm 552.0 W/m2
16:58 84.7 °F /  29.3 °C 46.0 °F /  7.8 °C 29.72in /  1006.3hPa SE 8.1mph /  13km/h 13.0mph /  20.9km/h 26% 0.00in /  0mm 510.0 W/m2
17:04 84.6 °F /  29.2 °C 45.0 °F /  7.2 °C 29.72in /  1006.3hPa South 10.1mph /  16.3km/h 13.0mph /  20.9km/h 25% 0.00in /  0mm 510.0 W/m2
17:11 84.6 °F /  29.2 °C 45.9 °F /  7.7 °C 29.71in /  1006hPa SSE 6.9mph /  11.1km/h 8.0mph /  12.9km/h 26% 0.00in /  0mm 476.0 W/m2
17:17 84.7 °F /  29.3 °C 46.0 °F /  7.8 °C 29.72in /  1006.3hPa East 4.9mph /  7.9km/h 5.0mph /  8km/h 26% 0.00in /  0mm 446.0 W/m2
17:23 84.9 °F /  29.4 °C 46.2 °F /  7.9 °C 29.72in /  1006.3hPa SSE 6.9mph /  11.1km/h 8.0mph /  12.9km/h 26% 0.00in /  0mm 371.0 W/m2
17:29 84.9 °F /  29.4 °C 47.1 °F /  8.4 °C 29.72in /  1006.3hPa SSE 4.0mph /  6.4km/h 7.0mph /  11.3km/h 27% 0.00in /  0mm 366.0 W/m2
17:35 84.9 °F /  29.4 °C 46.2 °F /  7.9 °C 29.72in /  1006.3hPa SSW 6.9mph /  11.1km/h 7.0mph /  11.3km/h 26% 0.00in /  0mm 394.0 W/m2
18:16 83.3 °F /  28.5 °C 46.8 °F /  8.2 °C 29.73in /  1006.7hPa South 2.0mph /  3.2km/h 9.0mph /  14.5km/h 28% 0.00in /  0mm 225.0 W/m2
18:22 83.5 °F /  28.6 °C 46.0 °F /  7.8 °C 29.73in /  1006.7hPa SSW 2.9mph /  4.7km/h 6.0mph /  9.7km/h 27% 0.00in /  0mm 207.0 W/m2
18:28 83.3 °F /  28.5 °C 44.8 °F /  7.1 °C 29.73in /  1006.7hPa South 0.9mph /  1.4km/h 8.0mph /  12.9km/h 26% 0.00in /  0mm 190.0 W/m2
18:34 82.9 °F /  28.3 °C 46.4 °F /  8 °C 29.74in /  1007hPa South 2.0mph /  3.2km/h 10.0mph /  16.1km/h 28% 0.00in /  0mm 171.0 W/m2
18:40 82.8 °F /  28.2 °C 46.4 °F /  8 °C 29.74in /  1007hPa ESE 4.9mph /  7.9km/h 8.0mph /  12.9km/h 28% 0.00in /  0mm 149.0 W/m2
18:47 82.8 °F /  28.2 °C 45.3 °F /  7.4 °C 29.74in /  1007hPa East 6.0mph /  9.7km/h 10.0mph /  16.1km/h 27% 0.00in /  0mm 118.0 W/m2
18:53 82.6 °F /  28.1 °C 46.2 °F /  7.9 °C 29.74in /  1007hPa SSE 2.0mph /  3.2km/h 6.0mph /  9.7km/h 28% 0.00in /  0mm 74.0 W/m2
18:59 81.9 °F /  27.7 °C 45.5 °F /  7.5 °C 29.74in /  1007hPa SSE 6.9mph /  11.1km/h 7.0mph /  11.3km/h 28% 0.00in /  0mm 30.0 W/m2
19:05 81.1 °F /  27.3 °C 45.9 °F /  7.7 °C 29.74in /  1007hPa South 6.9mph /  11.1km/h 8.0mph /  12.9km/h 29% 0.00in /  0mm 16.0 W/m2
19:11 80.4 °F /  26.9 °C 45.3 °F /  7.4 °C 29.75in /  1007.3hPa SSW 2.0mph /  3.2km/h 6.0mph /  9.7km/h 29% 0.00in /  0mm 14.0 W/m2
19:17 79.9 °F /  26.6 °C 45.7 °F /  7.6 °C 29.75in /  1007.3hPa SE 0.9mph /  1.4km/h 5.0mph /  8km/h 30% 0.00in /  0mm 5.0 W/m2
19:23 79.3 °F /  26.3 °C 45.1 °F /  7.3 °C 29.75in /  1007.3hPa Calm   5.0mph /  8km/h 30% 0.00in /  0mm 0.0 W/m2
19:29 78.8 °F /  26 °C 45.7 °F /  7.6 °C 29.75in /  1007.3hPa SE 0.9mph /  1.4km/h 4.0mph /  6.4km/h 31% 0.00in /  0mm 0.0 W/m2
19:35 78.4 °F /  25.8 °C 46.2 °F /  7.9 °C 29.75in /  1007.3hPa Calm   1.0mph /  1.6km/h 32% 0.00in /  0mm 0.0 W/m2
19:42 78.3 °F /  25.7 °C 46.0 °F /  7.8 °C 29.76in /  1007.7hPa Calm   2.0mph /  3.2km/h 32% 0.00in /  0mm 0.0 W/m2
20:26 76.3 °F /  24.6 °C 47.3 °F /  8.5 °C 29.77in /  1008hPa Calm     36% 0.00in /  0mm 0.0 W/m2
20:33 75.9 °F /  24.4 °C 47.8 °F /  8.8 °C 29.77in /  1008hPa Calm   1.0mph /  1.6km/h 37% 0.00in /  0mm 0.0 W/m2
20:39 75.7 °F /  24.3 °C 47.7 °F /  8.7 °C 29.78in /  1008.4hPa Calm   1.0mph /  1.6km/h 37% 0.00in /  0mm 0.0 W/m2
20:45 75.6 °F /  24.2 °C 48.2 °F /  9 °C 29.78in /  1008.4hPa Calm   1.0mph /  1.6km/h 38% 0.00in /  0mm 0.0 W/m2
20:51 75.2 °F /  24 °C 47.8 °F /  8.8 °C 29.78in /  1008.4hPa Calm     38% 0.00in /  0mm 0.0 W/m2
20:57 74.8 °F /  23.8 °C 48.9 °F /  9.4 °C 29.78in /  1008.4hPa Calm     40% 0.00in /  0mm 0.0 W/m2
21:03 74.5 °F /  23.6 °C 49.8 °F /  9.9 °C 29.78in /  1008.4hPa Calm     42% 0.00in /  0mm 0.0 W/m2
21:09 73.9 °F /  23.3 °C 49.5 °F /  9.7 °C 29.78in /  1008.4hPa Calm     42% 0.00in /  0mm 0.0 W/m2
21:15 73.6 °F /  23.1 °C 49.1 °F /  9.5 °C 29.78in /  1008.4hPa Calm     42% 0.00in /  0mm 0.0 W/m2
21:22 73.2 °F /  22.9 °C 49.5 °F /  9.7 °C 29.78in /  1008.4hPa Calm     43% 0.00in /  0mm 0.0 W/m2
21:28 72.9 °F /  22.7 °C 49.1 °F /  9.5 °C 29.79in /  1008.7hPa Calm     43% 0.00in /  0mm 0.0 W/m2
21:34 72.5 °F /  22.5 °C 48.7 °F /  9.3 °C 29.79in /  1008.7hPa Calm   1.0mph /  1.6km/h 43% 0.00in /  0mm 0.0 W/m2
21:40 72.3 °F /  22.4 °C 49.1 °F /  9.5 °C 29.79in /  1008.7hPa Calm   2.0mph /  3.2km/h 44% 0.00in /  0mm 0.0 W/m2
21:46 72.1 °F /  22.3 °C 49.1 °F /  9.5 °C 29.79in /  1008.7hPa SW 0.9mph /  1.4km/h 1.0mph /  1.6km/h 44% 0.00in /  0mm 0.0 W/m2
21:52 71.8 °F /  22.1 °C 49.8 °F /  9.9 °C 29.79in /  1008.7hPa Calm   1.0mph /  1.6km/h 46% 0.00in /  0mm 0.0 W/m2
21:58 71.4 °F /  21.9 °C 49.6 °F /  9.8 °C 29.79in /  1008.7hPa Calm   1.0mph /  1.6km/h 46% 0.00in /  0mm 0.0 W/m2
22:04 71.1 °F /  21.7 °C 50.4 °F /  10.2 °C 29.80in /  1009hPa Calm   1.0mph /  1.6km/h 48% 0.00in /  0mm 0.0 W/m2
22:11 70.9 °F /  21.6 °C 50.2 °F /  10.1 °C 29.80in /  1009hPa Calm     48% 0.00in /  0mm 0.0 W/m2
22:15 70.5 °F /  21.4 °C 49.8 °F /  9.9 °C 29.80in /  1009hPa Calm   1.0mph /  1.6km/h 48% 0.00in /  0mm 0.0 W/m2
22:21 70.3 °F /  21.3 °C 50.4 °F /  10.2 °C 29.80in /  1009hPa Calm   1.0mph /  1.6km/h 49% 0.00in /  0mm 0.0 W/m2
22:27 70.0 °F /  21.1 °C 50.5 °F /  10.3 °C 29.80in /  1009hPa Calm     50% 0.00in /  0mm 0.0 W/m2
22:33 69.6 °F /  20.9 °C 50.7 °F /  10.4 °C 29.80in /  1009hPa Calm     51% 0.00in /  0mm 0.0 W/m2
22:39 69.4 °F /  20.8 °C 51.1 °F /  10.6 °C 29.80in /  1009hPa Calm   1.0mph /  1.6km/h 52% 0.00in /  0mm 0.0 W/m2
22:45 69.3 °F /  20.7 °C 51.4 °F /  10.8 °C 29.80in /  1009hPa Calm     53% 0.00in /  0mm 0.0 W/m2
22:51 68.9 °F /  20.5 °C 51.1 °F /  10.6 °C 29.80in /  1009hPa Calm   1.0mph /  1.6km/h 53% 0.00in /  0mm 0.0 W/m2
22:58 68.7 °F /  20.4 °C 50.9 °F /  10.5 °C 29.80in /  1009hPa Calm     53% 0.00in /  0mm 0.0 W/m2
23:04 68.7 °F /  20.4 °C 50.4 °F /  10.2 °C 29.80in /  1009hPa Calm     52% 0.00in /  0mm 0.0 W/m2
23:10 68.5 °F /  20.3 °C 50.7 °F /  10.4 °C 29.80in /  1009hPa Calm     53% 0.00in /  0mm 0.0 W/m2
23:16 68.5 °F /  20.3 °C 50.2 °F /  10.1 °C 29.80in /  1009hPa SSE 0.9mph /  1.4km/h 3.0mph /  4.8km/h 52% 0.00in /  0mm 0.0 W/m2
23:22 68.5 °F /  20.3 °C 49.1 °F /  9.5 °C 29.80in /  1009hPa ESE 0.9mph /  1.4km/h 4.0mph /  6.4km/h 50% 0.00in /  0mm 0.0 W/m2
23:28 69.3 °F /  20.7 °C 48.2 °F /  9 °C 29.80in /  1009hPa Calm   4.0mph /  6.4km/h 47% 0.00in /  0mm 0.0 W/m2
23:34 70.2 °F /  21.2 °C 48.4 °F /  9.1 °C 29.80in /  1009hPa SE 2.0mph /  3.2km/h 5.0mph /  8km/h 46% 0.00in /  0mm 0.0 W/m2
23:40 70.9 °F /  21.6 °C 47.8 °F /  8.8 °C 29.80in /  1009hPa SE 2.9mph /  4.7km/h 5.0mph /  8km/h 44% 0.00in /  0mm 0.0 W/m2
23:46 71.8 °F /  22.1 °C 48.0 °F /  8.9 °C 29.80in /  1009hPa SE 0.9mph /  1.4km/h 8.0mph /  12.9km/h 43% 0.00in /  0mm 0.0 W/m2
23:52 72.3 °F /  22.4 °C 48.0 °F /  8.9 °C 29.80in /  1009hPa SE 2.0mph /  3.2km/h 9.0mph /  14.5km/h 42% 0.00in /  0mm 0.0 W/m2
23:59 73.0 °F /  22.8 °C 48.0 °F /  8.9 °C 29.80in /  1009hPa SSE 2.0mph /  3.2km/h 6.0mph /  9.7km/h 41% 0.00in /  0mm 0.0 W/m2
Olympia, Windhoek, Namibia
Compliments of Weather Underground - 3 mb